CheckWX is a tool to help pilots better visualize weather data.  It is not intended as a substitute for an official pre-flight weather briefing.

05:10:21 UTC

KMPO METAR
Pocono Mountains Municipal Airport
Mount Pocono, Pennsylvania, USA
Current

17 mins ago

KMPO 020453Z AUTO 28004KT 10SM CLR 07/04 A3012 RMK AO2 SLP204 T00720039 401780000
Observed
Jun-2 @ 04:53 UTC
Wind
  • 280° at 4 KTS
Visibility
Flight Rules
VFR
Cloud Levels
  • Clear skies
Dewpoint
C / 39°F
Humidity
81%
Altimeter
30.12" Hg
Pressure
1020.02 hPa
Previous

1 hour ago

KMPO 020353Z AUTO 00000KT 10SM CLR 08/04 A3013 RMK AO2 SLP207 T00780044
Observed
Jun-2 @ 03:53 UTC
Visibility
Flight Rules
VFR
Cloud Levels
  • Clear skies
Temperature
C / 46°F
Dewpoint
C / 39°F
Humidity
76%
Altimeter
30.13" Hg
Pressure
1020.32 hPa
Previous

2 hours ago

KMPO 020253Z AUTO 00000KT 10SM CLR 08/04 A3013 RMK AO2 SLP208 T00780039 53005
Observed
Jun-2 @ 02:53 UTC
Visibility
Flight Rules
VFR
Cloud Levels
  • Clear skies
Temperature
C / 46°F
Dewpoint
C / 39°F
Humidity
76%
Altimeter
30.13" Hg
Pressure
1020.32 hPa